DRZA

Mano Dayak International Airport

Agadez, Niger
METAR DRZA 211800Z 18018KT 4000 TS DU FEW040CB 28/16 Q1013
Observed Flight Rules
Jun-21 @ 18:00 UTC (4 hours ago) Instrument Flight Rules
Wind Visibility Clouds Conditions
180° at 18 knots 4,007 meters
  • Few at 4,000' AGL
  • Thunderstorm
  • Dust
Temperatures Readings
Current 28°C / 82°F
Dewpoint 16°C / 61°F
Humidity 48%
Altimeter 29.91" Hg
Pressure 1013 hPa
Elevation 502
METAR DRZA 211800Z 18018KT 4000 TS DU FEW040CB 28/16 Q1013
Observed Flight Rules
Jun-21 @ 18:00 UTC
(4 hours ago)
IFR
Wind Visibility
180° at 18 knots 4,007 meters
Clouds
  • Few at 4,000' AGL
Conditions
  • Thunderstorm
  • Dust
Temperature Dewpoint
28°C / 82°F 16°C / 61°F
Humidity Altimeter Pressure
48% 29.91" Hg 1013 hPa